Time;durP1;ratioP1;P1;durP2;ratioP2;P2;SDS_P1;SDS_P2;PMS_P1;PMS_P2;Temp;Humidity;BMP_temperature;BMP_pressure;BME280_temperature;BME280_humidity;BME280_pressure;Samples;Min_cycle;Max_cycle;Signal;HPM_P1;HPM_P2
2024/01/15 00:01:59;;;;;;;;;;;2.10;99.90;;;;;;5068028;28;19935;-83
2024/01/15 00:04:24;;;;;;;;;;;2.10;99.90;;;;;;5050521;28;19908;-82
2024/01/15 00:06:50;;;;;;;;;;;2.10;99.90;;;;;;5068401;28;19916;-83
2024/01/15 00:09:15;;;;;;;;;;;2.00;99.90;;;;;;5059881;28;20817;-82
2024/01/15 00:11:41;;;;;;;;;;;1.90;99.90;;;;;;5051806;28;20279;-83
2024/01/15 00:14:08;;;;;;;;;;;1.70;99.90;;;;;;5071558;28;20011;-84
2024/01/15 00:16:34;;;;;;;;;;;1.50;99.90;;;;;;5068866;28;19991;-83
2024/01/15 00:18:59;;;;;;;;;;;1.30;99.90;;;;;;5066781;28;21051;-82
2024/01/15 00:21:34;;;;;;;;;;;1.20;99.90;;;;;;5068026;28;20351;-83
2024/01/15 00:24:00;;;;;;;;;;;1.10;99.90;;;;;;5061068;28;19916;-82
2024/01/15 00:26:25;;;;;;;;;;;1.10;99.90;;;;;;5054315;28;19915;-83
2024/01/15 00:28:50;;;;;;;;;;;1.20;99.90;;;;;;5051474;28;20352;-83
2024/01/15 00:31:17;;;;;;;;;;;1.20;99.90;;;;;;5069769;28;20353;-83
2024/01/15 00:33:42;;;;;;;;;;;1.30;99.90;;;;;;5067969;28;19978;-83
2024/01/15 00:36:07;;;;;;;;;;;1.30;99.90;;;;;;5068335;28;19916;-83
2024/01/15 00:38:33;;;;;;;;;;;1.40;99.90;;;;;;5070007;28;19909;-83
2024/01/15 00:40:58;;;;;;;;;;;1.40;99.90;;;;;;5069614;28;20280;-83
2024/01/15 00:43:24;;;;;;;;;;;1.40;99.90;;;;;;5070317;28;20349;-83
2024/01/15 00:45:49;;;;;;;;;;;1.40;99.90;;;;;;5050402;28;19908;-83
2024/01/15 00:48:15;;;;;;;;;;;1.50;99.90;;;;;;5068418;28;19909;-83
2024/01/15 00:50:40;;;;;;;;;;;1.50;99.90;;;;;;5065907;28;19963;-82
2024/01/15 00:53:05;;;;;;;;;;;1.50;99.90;;;;;;5069286;28;19916;-83
2024/01/15 00:55:31;;;;;;;;;;;1.60;99.90;;;;;;5051685;28;20414;-83
2024/01/15 00:57:57;;;;;;;;;;;1.50;99.90;;;;;;5053147;28;20573;-82
2024/01/15 01:00:22;;;;;;;;;;;1.50;99.90;;;;;;5050940;28;19924;-82
2024/01/15 01:02:48;;;;;;;;;;;1.60;99.90;;;;;;5051304;28;19913;-83
2024/01/15 01:05:13;;;;;;;;;;;1.60;99.90;;;;;;5070056;28;19958;-83
2024/01/15 01:07:38;;;;;;;;;;;1.60;99.90;;;;;;5048237;28;19916;-83
2024/01/15 01:10:04;;;;;;;;;;;1.60;99.90;;;;;;5061391;28;20015;-82
2024/01/15 01:12:30;;;;;;;;;;;1.60;99.90;;;;;;5068385;28;20024;-82
2024/01/15 01:14:55;;;;;;;;;;;1.60;99.90;;;;;;5067957;28;19959;-82
2024/01/15 01:17:21;;;;;;;;;;;1.70;99.90;;;;;;5069749;28;20387;-82
2024/01/15 01:19:46;;;;;;;;;;;1.70;99.90;;;;;;5066689;28;19912;-83
2024/01/15 01:22:12;;;;;;;;;;;1.70;99.90;;;;;;5068238;28;19942;-82
2024/01/15 01:24:37;;;;;;;;;;;1.70;99.90;;;;;;5068011;28;19926;-83
2024/01/15 01:27:03;;;;;;;;;;;1.70;99.90;;;;;;5059949;28;19913;-82
2024/01/15 01:29:28;;;;;;;;;;;1.70;99.90;;;;;;5059569;28;19952;-82
2024/01/15 01:31:54;;;;;;;;;;;1.70;99.90;;;;;;5067925;28;19926;-82
2024/01/15 01:34:19;;;;;;;;;;;1.70;99.90;;;;;;5068397;28;20007;-83
2024/01/15 01:36:45;;;;;;;;;;;1.60;99.90;;;;;;5048653;28;19909;-83
2024/01/15 01:39:10;;;;;;;;;;;1.60;99.90;;;;;;5070827;28;20472;-83
2024/01/15 01:41:36;;;;;;;;;;;1.50;99.90;;;;;;5066438;28;20472;-83
2024/01/15 01:44:01;;;;;;;;;;;1.50;99.90;;;;;;5051765;28;19908;-83
2024/01/15 01:46:27;;;;;;;;;;;1.50;99.90;;;;;;5065579;28;20015;-82
2024/01/15 01:48:53;;;;;;;;;;;1.50;99.90;;;;;;5069986;28;20295;-82
2024/01/15 01:51:19;;;;;;;;;;;1.50;99.90;;;;;;5067145;28;19922;-83
2024/01/15 01:53:45;;;;;;;;;;;1.50;99.90;;;;;;5043264;28;19912;-83
2024/01/15 01:56:11;;;;;;;;;;;1.40;99.90;;;;;;5064295;28;19927;-83
2024/01/15 01:58:37;;;;;;;;;;;1.40;99.90;;;;;;5063771;28;19912;-83
2024/01/15 02:01:02;;;;;;;;;;;1.40;99.90;;;;;;5045266;28;19916;-83
2024/01/15 02:03:30;;;;;;;;;;;1.30;99.90;;;;;;5068263;28;19908;-83
2024/01/15 02:05:56;;;;;;;;;;;1.40;99.90;;;;;;5059538;28;19908;-82
2024/01/15 02:08:21;;;;;;;;;;;1.40;99.90;;;;;;5051300;28;19915;-82
2024/01/15 02:10:47;;;;;;;;;;;1.40;99.90;;;;;;5053323;28;19920;-82
2024/01/15 02:13:12;;;;;;;;;;;1.40;99.90;;;;;;5047950;28;19919;-82
2024/01/15 02:15:38;;;;;;;;;;;1.40;99.90;;;;;;5067819;28;20356;-82
2024/01/15 02:18:04;;;;;;;;;;;1.50;99.90;;;;;;5049549;28;19920;-83
2024/01/15 02:20:30;;;;;;;;;;;1.60;99.90;;;;;;5070338;28;19916;-82
2024/01/15 02:23:12;;;;;;;;;;;1.40;99.90;;;;;;5068653;28;20288;-83
2024/01/15 02:25:42;;;;;;;;;;;1.40;99.90;;;;;;5064242;28;20360;-83
2024/01/15 02:28:09;;;;;;;;;;;1.40;99.90;;;;;;5064390;28;19913;-82
2024/01/15 02:30:36;;;;;;;;;;;1.50;99.90;;;;;;5063890;28;19921;-83
2024/01/15 02:33:02;;;;;;;;;;;1.50;99.90;;;;;;5067660;28;19927;-82
2024/01/15 02:35:27;;;;;;;;;;;1.60;99.90;;;;;;5069018;28;19913;-83
2024/01/15 02:37:53;;;;;;;;;;;1.60;99.90;;;;;;5066384;28;20536;-82
2024/01/15 02:40:18;;;;;;;;;;;1.60;99.90;;;;;;5066240;28;20683;-83
2024/01/15 02:42:43;;;;;;;;;;;1.60;99.90;;;;;;5060084;28;20007;-82
2024/01/15 02:45:09;;;;;;;;;;;1.50;99.90;;;;;;5065754;28;19916;-83
2024/01/15 02:47:37;;;;;;;;;;;1.40;99.90;;;;;;5067781;28;19909;-83
2024/01/15 02:50:03;;;;;;;;;;;1.40;99.90;;;;;;5069071;28;19912;-83
2024/01/15 02:52:28;;;;;;;;;;;1.30;99.90;;;;;;5069329;28;19995;-82
2024/01/15 02:54:54;;;;;;;;;;;1.20;99.90;;;;;;5069408;28;20368;-82
2024/01/15 02:57:19;;;;;;;;;;;1.20;99.90;;;;;;5068094;28;19999;-82
2024/01/15 02:59:45;;;;;;;;;;;1.20;99.90;;;;;;5043675;28;19977;-82
2024/01/15 03:02:10;;;;;;;;;;;1.30;99.90;;;;;;5064784;28;19919;-82
2024/01/15 03:04:36;;;;;;;;;;;1.30;99.90;;;;;;5066079;28;19934;-82
2024/01/15 03:07:01;;;;;;;;;;;1.30;99.90;;;;;;5066855;28;19920;-82
2024/01/15 03:09:27;;;;;;;;;;;1.30;99.90;;;;;;5049308;28;20061;-82
2024/01/15 03:11:52;;;;;;;;;;;1.30;99.90;;;;;;5068245;28;19958;-83
2024/01/15 03:14:17;;;;;;;;;;;1.20;99.90;;;;;;5060872;28;19915;-83
2024/01/15 03:16:43;;;;;;;;;;;1.20;99.90;;;;;;5057728;28;19959;-83
2024/01/15 03:19:08;;;;;;;;;;;1.20;99.90;;;;;;5068958;28;19951;-82
2024/01/15 03:21:34;;;;;;;;;;;1.10;99.90;;;;;;5068689;28;19946;-83
2024/01/15 03:23:59;;;;;;;;;;;1.10;99.90;;;;;;5067379;28;20584;-83
2024/01/15 03:26:25;;;;;;;;;;;1.10;99.90;;;;;;5067141;28;20399;-83
2024/01/15 03:28:51;;;;;;;;;;;1.00;99.90;;;;;;5066872;28;20295;-83
2024/01/15 03:31:17;;;;;;;;;;;1.00;99.90;;;;;;5066389;28;20323;-82
2024/01/15 03:33:42;;;;;;;;;;;1.00;99.90;;;;;;5065693;28;19952;-82
2024/01/15 03:36:08;;;;;;;;;;;1.00;99.90;;;;;;5064797;28;19920;-82
2024/01/15 03:38:33;;;;;;;;;;;1.00;99.90;;;;;;5064336;28;20310;-83
2024/01/15 03:40:59;;;;;;;;;;;1.00;99.90;;;;;;5067909;28;20297;-82
2024/01/15 03:43:24;;;;;;;;;;;1.00;99.90;;;;;;5068425;28;20307;-82
2024/01/15 03:45:49;;;;;;;;;;;1.00;99.90;;;;;;5066413;28;19959;-82
2024/01/15 03:48:15;;;;;;;;;;;1.00;99.90;;;;;;5047269;28;19934;-82
2024/01/15 03:50:40;;;;;;;;;;;1.00;99.90;;;;;;5071212;28;19908;-82
2024/01/15 03:53:06;;;;;;;;;;;1.00;99.90;;;;;;5071940;28;19908;-82
2024/01/15 03:55:32;;;;;;;;;;;1.00;99.90;;;;;;5069040;28;19912;-83
2024/01/15 03:57:57;;;;;;;;;;;1.10;99.90;;;;;;5068695;28;19912;-82
2024/01/15 04:00:23;;;;;;;;;;;1.10;99.90;;;;;;5067867;28;20406;-82
2024/01/15 04:02:48;;;;;;;;;;;1.10;99.90;;;;;;5070817;28;20427;-82
2024/01/15 04:05:13;;;;;;;;;;;1.10;99.90;;;;;;5066656;28;20422;-83
2024/01/15 04:07:39;;;;;;;;;;;1.10;99.90;;;;;;5068866;28;19916;-82
2024/01/15 04:10:04;;;;;;;;;;;1.10;99.90;;;;;;5063215;28;20295;-83
2024/01/15 04:12:30;;;;;;;;;;;1.10;99.90;;;;;;5068330;28;20316;-83
2024/01/15 04:14:55;;;;;;;;;;;1.20;99.90;;;;;;5068710;28;20333;-83
2024/01/15 04:17:21;;;;;;;;;;;1.20;99.90;;;;;;5066952;28;19908;-82
2024/01/15 04:19:47;;;;;;;;;;;1.30;99.90;;;;;;5066766;28;19916;-82
2024/01/15 04:22:13;;;;;;;;;;;1.20;99.90;;;;;;5073073;28;19959;-82
2024/01/15 04:24:38;;;;;;;;;;;1.30;99.90;;;;;;5068313;28;19948;-82
2024/01/15 04:27:04;;;;;;;;;;;1.20;99.90;;;;;;5066190;28;19912;-83
2024/01/15 04:29:29;;;;;;;;;;;1.20;99.90;;;;;;5068594;28;19916;-82
2024/01/15 04:31:55;;;;;;;;;;;1.30;99.90;;;;;;5068513;28;19912;-82
2024/01/15 04:34:20;;;;;;;;;;;1.30;99.90;;;;;;5067949;28;19919;-82
2024/01/15 04:36:46;;;;;;;;;;;1.30;99.90;;;;;;5063699;28;19999;-83
2024/01/15 04:39:11;;;;;;;;;;;1.30;99.90;;;;;;5069807;28;19948;-82
2024/01/15 04:41:37;;;;;;;;;;;1.30;99.90;;;;;;5067782;28;20018;-83
2024/01/15 04:44:02;;;;;;;;;;;1.30;99.90;;;;;;5072223;28;19912;-82
2024/01/15 04:46:28;;;;;;;;;;;1.40;99.90;;;;;;5062405;28;20532;-82
2024/01/15 04:48:53;;;;;;;;;;;1.30;99.90;;;;;;5050061;28;19927;-83
2024/01/15 04:51:19;;;;;;;;;;;1.30;99.90;;;;;;5049037;28;19924;-83
2024/01/15 04:53:44;;;;;;;;;;;1.20;99.90;;;;;;5068622;28;19915;-83
2024/01/15 04:56:10;;;;;;;;;;;1.20;99.90;;;;;;5070460;28;19919;-82
2024/01/15 04:58:35;;;;;;;;;;;1.20;99.90;;;;;;5069384;28;19915;-83
2024/01/15 05:01:01;;;;;;;;;;;1.30;99.90;;;;;;5066013;28;19980;-82
2024/01/15 05:03:26;;;;;;;;;;;1.40;99.90;;;;;;5051435;28;19912;-82
2024/01/15 05:05:51;;;;;;;;;;;1.40;99.90;;;;;;5071791;28;19919;-82
2024/01/15 05:08:17;;;;;;;;;;;1.40;99.90;;;;;;5067074;28;19916;-83
2024/01/15 05:10:42;;;;;;;;;;;1.50;99.90;;;;;;5068164;28;19927;-82
2024/01/15 05:13:08;;;;;;;;;;;1.40;99.90;;;;;;5068186;28;19950;-82
2024/01/15 05:15:33;;;;;;;;;;;1.40;99.90;;;;;;5065515;28;19920;-82
2024/01/15 05:17:59;;;;;;;;;;;1.40;99.90;;;;;;5040053;28;19954;-83
2024/01/15 05:20:24;;;;;;;;;;;1.30;99.90;;;;;;5040756;28;19913;-83
2024/01/15 05:22:50;;;;;;;;;;;1.30;99.90;;;;;;5055056;28;19974;-82
2024/01/15 05:25:15;;;;;;;;;;;1.30;99.90;;;;;;5065669;28;20367;-83
2024/01/15 05:27:40;;;;;;;;;;;1.20;99.90;;;;;;5068019;28;20272;-83
2024/01/15 05:30:06;;;;;;;;;;;1.40;99.90;;;;;;5050140;28;20573;-83
2024/01/15 05:32:31;;;;;;;;;;;1.30;99.90;;;;;;5068059;28;20513;-83
2024/01/15 05:34:57;;;;;;;;;;;1.20;99.90;;;;;;5062924;28;19912;-84
2024/01/15 05:37:22;;;;;;;;;;;1.10;99.90;;;;;;5063284;28;20555;-83
2024/01/15 05:39:48;;;;;;;;;;;1.10;99.90;;;;;;5069427;28;19987;-82
2024/01/15 05:42:13;;;;;;;;;;;1.10;99.90;;;;;;5068810;28;20323;-83
2024/01/15 05:44:39;;;;;;;;;;;1.10;99.90;;;;;;5064797;28;20598;-83
2024/01/15 05:47:04;;;;;;;;;;;1.10;99.90;;;;;;5068117;28;20286;-83
2024/01/15 05:49:30;;;;;;;;;;;1.10;99.90;;;;;;5068812;28;19916;-83
2024/01/15 05:51:55;;;;;;;;;;;1.20;99.90;;;;;;5067324;28;19919;-83
2024/01/15 05:54:20;;;;;;;;;;;1.10;99.90;;;;;;5066295;28;19920;-83
2024/01/15 05:56:46;;;;;;;;;;;1.10;99.90;;;;;;5062936;28;20003;-83
2024/01/15 05:59:11;;;;;;;;;;;1.20;99.90;;;;;;5066086;28;20053;-83
2024/01/15 06:01:37;;;;;;;;;;;1.10;99.90;;;;;;5062780;28;19929;-83
2024/01/15 06:04:02;;;;;;;;;;;1.10;99.90;;;;;;5064568;28;20399;-83
2024/01/15 06:06:28;;;;;;;;;;;1.10;99.90;;;;;;5059538;28;20408;-83
2024/01/15 06:08:53;;;;;;;;;;;1.10;99.90;;;;;;5060923;28;19919;-83
2024/01/15 06:11:19;;;;;;;;;;;1.10;99.90;;;;;;5066211;28;20406;-83
2024/01/15 06:13:44;;;;;;;;;;;1.10;99.90;;;;;;5070672;28;20292;-83
2024/01/15 06:16:14;;;;;;;;;;;1.00;99.90;;;;;;5062010;28;19908;-83
2024/01/15 06:18:39;;;;;;;;;;;1.00;99.90;;;;;;5070728;28;19912;-83
2024/01/15 06:21:04;;;;;;;;;;;0.90;99.90;;;;;;5069652;28;19912;-83
2024/01/15 06:23:30;;;;;;;;;;;0.90;99.90;;;;;;5070225;28;20340;-83
2024/01/15 06:25:55;;;;;;;;;;;0.80;99.90;;;;;;5067755;28;20464;-83
2024/01/15 06:28:21;;;;;;;;;;;0.80;99.90;;;;;;5065079;28;20395;-83
2024/01/15 06:30:46;;;;;;;;;;;0.80;99.90;;;;;;5050299;28;19991;-83
2024/01/15 06:33:11;;;;;;;;;;;0.80;99.90;;;;;;5066180;28;20489;-84
2024/01/15 06:35:37;;;;;;;;;;;0.90;99.90;;;;;;5048345;28;20273;-83
2024/01/15 06:38:02;;;;;;;;;;;0.90;99.90;;;;;;5049926;28;19944;-83
2024/01/15 06:40:28;;;;;;;;;;;0.90;99.90;;;;;;5051587;28;19959;-83
2024/01/15 06:42:53;;;;;;;;;;;0.90;99.90;;;;;;5070262;28;19912;-83
2024/01/15 06:45:19;;;;;;;;;;;0.90;99.90;;;;;;5068887;28;20015;-84
2024/01/15 06:47:44;;;;;;;;;;;0.90;99.90;;;;;;5070977;28;19935;-84
2024/01/15 06:50:09;;;;;;;;;;;0.80;99.90;;;;;;5052251;28;20309;-84
2024/01/15 06:52:35;;;;;;;;;;;0.80;99.90;;;;;;5064277;28;19961;-84
2024/01/15 06:55:00;;;;;;;;;;;0.70;99.90;;;;;;5070335;28;19912;-84
2024/01/15 06:57:26;;;;;;;;;;;0.70;99.90;;;;;;5070689;28;20004;-83
2024/01/15 06:59:51;;;;;;;;;;;0.70;99.90;;;;;;5069588;28;19916;-84
2024/01/15 07:02:17;;;;;;;;;;;0.70;99.90;;;;;;5048688;28;20390;-83
2024/01/15 07:04:42;;;;;;;;;;;0.70;99.90;;;;;;5049810;28;20561;-83
2024/01/15 07:07:07;;;;;;;;;;;0.60;99.90;;;;;;5068088;28;19974;-84
2024/01/15 07:09:33;;;;;;;;;;;0.60;99.90;;;;;;5068395;28;19921;-83
2024/01/15 07:11:59;;;;;;;;;;;0.70;99.90;;;;;;5069851;28;19919;-83
2024/01/15 07:14:24;;;;;;;;;;;0.70;99.90;;;;;;5068201;28;19952;-82
2024/01/15 07:16:50;;;;;;;;;;;0.80;99.90;;;;;;5065347;28;19951;-83
2024/01/15 07:19:15;;;;;;;;;;;0.80;99.90;;;;;;5068250;28;20272;-83
2024/01/15 07:21:42;;;;;;;;;;;0.90;99.90;;;;;;5071044;28;20280;-82
2024/01/15 07:24:08;;;;;;;;;;;0.90;99.90;;;;;;5072956;28;20376;-83
2024/01/15 07:26:34;;;;;;;;;;;0.90;99.90;;;;;;5073090;28;19938;-83
2024/01/15 07:28:59;;;;;;;;;;;0.90;99.90;;;;;;5073848;28;19944;-83
2024/01/15 07:31:24;;;;;;;;;;;1.00;99.90;;;;;;5059994;28;20002;-83
2024/01/15 07:33:50;;;;;;;;;;;1.00;99.90;;;;;;5072215;28;20368;-83
2024/01/15 07:36:15;;;;;;;;;;;1.00;99.90;;;;;;5055285;28;20387;-82
2024/01/15 07:38:41;;;;;;;;;;;0.90;99.90;;;;;;5072872;28;20378;-83
2024/01/15 07:41:06;;;;;;;;;;;0.90;99.90;;;;;;5072934;28;20357;-82
2024/01/15 07:43:32;;;;;;;;;;;0.90;99.90;;;;;;5073190;28;20557;-82
2024/01/15 07:45:58;;;;;;;;;;;0.90;99.90;;;;;;5054327;28;19923;-84
2024/01/15 07:48:23;;;;;;;;;;;0.90;99.90;;;;;;5067183;28;19908;-83
2024/01/15 07:50:49;;;;;;;;;;;0.90;99.90;;;;;;5072495;28;19992;-82
2024/01/15 07:53:14;;;;;;;;;;;0.90;99.90;;;;;;5072364;28;19935;-82
2024/01/15 07:55:40;;;;;;;;;;;0.80;99.90;;;;;;5071504;28;19912;-82
2024/01/15 07:58:05;;;;;;;;;;;0.80;99.90;;;;;;5072466;28;19908;-83
2024/01/15 08:00:31;;;;;;;;;;;0.80;99.90;;;;;;5071162;28;20242;-82
2024/01/15 08:02:56;;;;;;;;;;;0.80;99.90;;;;;;5057440;28;20422;-82
2024/01/15 08:05:22;;;;;;;;;;;0.80;99.90;;;;;;5063626;28;20249;-82
2024/01/15 08:07:47;;;;;;;;;;;0.70;99.90;;;;;;5063140;28;20260;-83
2024/01/15 08:10:14;;;;;;;;;;;0.70;99.90;;;;;;5063219;28;19955;-82
2024/01/15 08:12:39;;;;;;;;;;;0.70;99.90;;;;;;5057500;28;19955;-83
2024/01/15 08:15:05;;;;;;;;;;;0.70;99.90;;;;;;5067573;28;20353;-83
2024/01/15 08:17:32;;;;;;;;;;;0.70;99.90;;;;;;5056311;28;19919;-82
2024/01/15 08:19:57;;;;;;;;;;;0.70;99.90;;;;;;5059461;28;19916;-82
2024/01/15 08:22:23;;;;;;;;;;;0.70;99.90;;;;;;5047174;28;20261;-82
2024/01/15 08:24:48;;;;;;;;;;;0.80;99.90;;;;;;5068062;28;19970;-82
2024/01/15 08:27:14;;;;;;;;;;;0.80;99.90;;;;;;5069208;28;19919;-88
2024/01/15 08:29:39;;;;;;;;;;;0.90;99.90;;;;;;5065719;28;19908;-79
2024/01/15 08:32:05;;;;;;;;;;;0.90;99.90;;;;;;5072002;28;19908;-81
2024/01/15 08:34:31;;;;;;;;;;;0.90;99.90;;;;;;5063823;28;19930;-80
2024/01/15 08:36:56;;;;;;;;;;;0.90;99.90;;;;;;5062946;28;19971;-79
2024/01/15 08:39:21;;;;;;;;;;;1.00;99.90;;;;;;5061384;28;19943;-77
2024/01/15 08:41:47;;;;;;;;;;;1.10;99.90;;;;;;5068338;28;19978;-82
2024/01/15 08:44:12;;;;;;;;;;;1.10;99.90;;;;;;5052695;28;19912;-82
2024/01/15 08:46:38;;;;;;;;;;;1.20;99.90;;;;;;5048658;28;20015;-82
2024/01/15 08:49:03;;;;;;;;;;;1.10;99.90;;;;;;5069924;28;19912;-82
2024/01/15 08:51:29;;;;;;;;;;;1.10;99.90;;;;;;5071375;28;19919;-82
2024/01/15 08:53:56;;;;;;;;;;;1.00;99.90;;;;;;5070196;28;20003;-82
2024/01/15 08:56:21;;;;;;;;;;;1.10;99.90;;;;;;5067850;28;19958;-81
2024/01/15 08:58:46;;;;;;;;;;;1.00;99.90;;;;;;5069059;28;20439;-82
2024/01/15 09:01:12;;;;;;;;;;;1.00;99.90;;;;;;5050823;28;19920;-82
2024/01/15 09:03:37;;;;;;;;;;;1.00;99.90;;;;;;5059502;28;19918;-82
2024/01/15 09:06:03;;;;;;;;;;;1.00;99.90;;;;;;5068875;28;19912;-81
2024/01/15 09:08:28;;;;;;;;;;;0.80;99.90;;;;;;5071068;28;19967;-81
2024/01/15 09:10:54;;;;;;;;;;;0.90;99.90;;;;;;5070657;28;19919;-82
2024/01/15 09:13:19;;;;;;;;;;;0.80;99.90;;;;;;5069803;28;19908;-81
2024/01/15 09:15:45;;;;;;;;;;;0.70;99.90;;;;;;5066276;28;20119;-81
2024/01/15 09:18:10;;;;;;;;;;;0.70;99.90;;;;;;5045551;28;20006;-81
2024/01/15 09:20:36;;;;;;;;;;;0.70;99.90;;;;;;5032803;28;19924;-81
2024/01/15 09:23:01;;;;;;;;;;;0.70;99.90;;;;;;5053835;28;19954;-80
2024/01/15 09:25:27;;;;;;;;;;;0.70;99.90;;;;;;5057253;28;19908;-81
2024/01/15 09:27:53;;;;;;;;;;;0.70;99.90;;;;;;5056563;28;20012;-81
2024/01/15 09:30:18;;;;;;;;;;;0.90;99.90;;;;;;5069977;28;20467;-81
2024/01/15 09:32:43;;;;;;;;;;;1.00;99.90;;;;;;5050397;28;19912;-81
2024/01/15 09:35:09;;;;;;;;;;;1.10;99.90;;;;;;5056515;28;19916;-80
2024/01/15 09:37:34;;;;;;;;;;;1.10;99.90;;;;;;5059470;28;19916;-81
2024/01/15 09:40:00;;;;;;;;;;;1.20;99.90;;;;;;5049310;28;19924;-81
2024/01/15 09:42:25;;;;;;;;;;;1.40;99.90;;;;;;5052843;28;19966;-81
2024/01/15 09:44:51;;;;;;;;;;;1.60;99.90;;;;;;5056462;28;19927;-80
2024/01/15 09:47:18;;;;;;;;;;;1.70;99.90;;;;;;5056755;28;20011;-81
2024/01/15 09:49:44;;;;;;;;;;;1.80;99.90;;;;;;5053644;28;19917;-81
2024/01/15 09:52:10;;;;;;;;;;;1.80;99.90;;;;;;5057531;28;20579;-82
2024/01/15 09:54:36;;;;;;;;;;;1.80;99.90;;;;;;5037772;28;19916;-81
2024/01/15 09:57:02;;;;;;;;;;;1.80;99.90;;;;;;5053980;28;19940;-81
2024/01/15 09:59:28;;;;;;;;;;;1.70;99.90;;;;;;5057783;28;19939;-82
2024/01/15 10:01:54;;;;;;;;;;;1.60;99.90;;;;;;5061552;28;20058;-81
2024/01/15 10:04:19;;;;;;;;;;;1.60;99.90;;;;;;5045465;28;20006;-81
2024/01/15 10:06:45;;;;;;;;;;;2.00;99.90;;;;;;5064810;28;19987;-81
2024/01/15 10:09:17;;;;;;;;;;;2.30;99.90;;;;;;5065252;28;19920;-81
2024/01/15 10:11:43;;;;;;;;;;;2.40;99.90;;;;;;5051985;28;19908;-81
2024/01/15 10:14:14;;;;;;;;;;;2.30;99.90;;;;;;5070033;28;19924;-81
2024/01/15 10:16:43;;;;;;;;;;;2.40;99.90;;;;;;5068086;28;19908;-82
2024/01/15 10:19:09;;;;;;;;;;;2.40;99.90;;;;;;5047397;28;20382;-81
2024/01/15 10:21:35;;;;;;;;;;;2.50;99.90;;;;;;5052360;28;20391;-81
2024/01/15 10:24:00;;;;;;;;;;;2.50;99.90;;;;;;5051157;28;20058;-82
2024/01/15 10:26:26;;;;;;;;;;;2.60;99.90;;;;;;5068092;28;19995;-81
2024/01/15 10:28:54;;;;;;;;;;;2.60;99.90;;;;;;5052215;28;19909;-81
2024/01/15 10:31:21;;;;;;;;;;;2.70;99.90;;;;;;5069598;28;19915;-81
2024/01/15 10:33:50;;;;;;;;;;;2.80;99.90;;;;;;5069294;28;19908;-82
2024/01/15 10:36:16;;;;;;;;;;;2.70;99.90;;;;;;5063353;28;19908;-81
2024/01/15 10:38:41;;;;;;;;;;;2.50;99.90;;;;;;5070261;28;19915;-81
2024/01/15 10:41:07;;;;;;;;;;;2.50;99.90;;;;;;5052194;28;19924;-82
2024/01/15 10:43:33;;;;;;;;;;;2.50;99.90;;;;;;5044522;28;19916;-81
2024/01/15 10:45:59;;;;;;;;;;;2.40;99.90;;;;;;5066958;28;19958;-81
2024/01/15 10:48:26;;;;;;;;;;;2.50;99.90;;;;;;5051600;28;19909;-81
2024/01/15 10:50:51;;;;;;;;;;;3.00;99.90;;;;;;5063921;28;20356;-82
2024/01/15 10:53:17;;;;;;;;;;;3.20;99.90;;;;;;5063798;28;19966;-82
2024/01/15 10:55:43;;;;;;;;;;;3.50;99.90;;;;;;5069127;28;20002;-81
2024/01/15 10:58:09;;;;;;;;;;;3.50;99.90;;;;;;5074075;28;19920;-82
2024/01/15 11:00:35;;;;;;;;;;;3.20;99.90;;;;;;5070753;28;19930;-81
2024/01/15 11:03:01;;;;;;;;;;;2.80;99.90;;;;;;5073936;28;20346;-82
2024/01/15 11:05:26;;;;;;;;;;;3.00;99.90;;;;;;5071395;28;20409;-81
2024/01/15 11:07:55;;;;;;;;;;;3.20;99.90;;;;;;5056604;28;19912;-82
2024/01/15 11:10:40;;;;;;;;;;;3.60;99.90;;;;;;5070805;28;19916;-82
2024/01/15 11:13:20;;;;;;;;;;;3.80;99.90;;;;;;5067675;28;19909;-81
2024/01/15 11:16:01;;;;;;;;;;;3.90;99.90;;;;;;5069134;28;20010;-92
2024/01/15 11:18:27;;;;;;;;;;;3.50;99.90;;;;;;5060708;28;19912;-86
2024/01/15 11:21:12;;;;;;;;;;;3.50;99.90;;;;;;5060793;28;19920;-85
2024/01/15 11:23:46;;;;;;;;;;;3.50;99.90;;;;;;5063865;28;20368;-84
2024/01/15 11:26:30;;;;;;;;;;;3.40;99.90;;;;;;5054790;28;19913;-85
2024/01/15 11:28:56;;;;;;;;;;;3.50;99.90;;;;;;5051448;28;19916;-84
2024/01/15 11:31:28;;;;;;;;;;;3.90;99.90;;;;;;5042546;28;19913;-84
2024/01/15 11:33:55;;;;;;;;;;;4.40;99.90;;;;;;5031016;28;19919;-85
2024/01/15 11:36:21;;;;;;;;;;;4.90;99.90;;;;;;5043810;28;19952;-84
2024/01/15 11:38:46;;;;;;;;;;;5.50;99.90;;;;;;5044526;28;19947;-81
2024/01/15 11:41:15;;;;;;;;;;;5.50;99.90;;;;;;5053730;28;20457;-84
2024/01/15 11:43:41;;;;;;;;;;;5.80;99.90;;;;;;5063670;28;19931;-80
2024/01/15 11:46:10;;;;;;;;;;;6.20;99.90;;;;;;5077326;28;19908;-81
2024/01/15 11:48:42;;;;;;;;;;;6.00;99.90;;;;;;5073350;28;19995;-81
2024/01/15 11:51:10;;;;;;;;;;;6.10;99.90;;;;;;5063850;28;19959;-84
2024/01/15 11:53:40;;;;;;;;;;;6.10;99.90;;;;;;5071641;28;19938;-84
2024/01/15 11:56:09;;;;;;;;;;;6.20;99.90;;;;;;5049968;28;19908;-84
2024/01/15 11:58:37;;;;;;;;;;;6.50;99.90;;;;;;5071994;28;20023;-84
2024/01/15 12:01:02;;;;;;;;;;;6.70;99.90;;;;;;5069984;28;19928;-84
2024/01/15 12:03:28;;;;;;;;;;;6.60;99.90;;;;;;5063710;28;19909;-83
2024/01/15 12:05:53;;;;;;;;;;;6.70;99.90;;;;;;5071517;28;19908;-81
2024/01/15 12:08:22;;;;;;;;;;;6.40;99.90;;;;;;5069578;28;19912;-81
2024/01/15 12:10:49;;;;;;;;;;;6.20;99.90;;;;;;5066066;28;19960;-79
2024/01/15 12:13:15;;;;;;;;;;;5.90;99.90;;;;;;5053047;28;19913;-82
2024/01/15 12:15:41;;;;;;;;;;;6.30;99.90;;;;;;5051685;28;20355;-81
2024/01/15 12:18:08;;;;;;;;;;;5.90;99.90;;;;;;5053960;28;20011;-81
2024/01/15 12:20:33;;;;;;;;;;;5.60;99.90;;;;;;5064474;28;20590;-81
2024/01/15 12:22:59;;;;;;;;;;;6.60;99.90;;;;;;5071819;28;20011;-82
2024/01/15 12:25:27;;;;;;;;;;;6.90;99.90;;;;;;5072618;28;19920;-83
2024/01/15 12:27:52;;;;;;;;;;;6.90;99.90;;;;;;5067646;28;20680;-83
2024/01/15 12:30:18;;;;;;;;;;;7.20;99.90;;;;;;5070978;28;20011;-83
2024/01/15 12:32:44;;;;;;;;;;;7.60;99.90;;;;;;5055607;28;19917;-83
2024/01/15 12:35:10;;;;;;;;;;;7.40;99.90;;;;;;5060200;28;19951;-82
2024/01/15 12:37:36;;;;;;;;;;;8.00;99.90;;;;;;5068196;28;19912;-82
2024/01/15 12:40:02;;;;;;;;;;;8.50;99.90;;;;;;5072162;28;19915;-82
2024/01/15 12:42:28;;;;;;;;;;;8.50;99.90;;;;;;5070718;28;20387;-82
2024/01/15 12:44:55;;;;;;;;;;;8.60;99.90;;;;;;5047457;28;19912;-82
2024/01/15 12:47:21;;;;;;;;;;;7.90;99.90;;;;;;5072374;28;20446;-83
2024/01/15 12:49:49;;;;;;;;;;;8.00;99.90;;;;;;5054281;28;19992;-84
2024/01/15 12:52:15;;;;;;;;;;;8.00;99.90;;;;;;5072275;28;19908;-82
2024/01/15 12:54:40;;;;;;;;;;;7.40;99.90;;;;;;5072329;28;19946;-81
2024/01/15 12:57:06;;;;;;;;;;;7.20;99.90;;;;;;5071938;28;19908;-81
2024/01/15 12:59:31;;;;;;;;;;;7.40;99.90;;;;;;5051978;28;20002;-82
2024/01/15 13:01:57;;;;;;;;;;;7.20;99.90;;;;;;5064885;28;19920;-82
2024/01/15 13:04:23;;;;;;;;;;;6.90;99.90;;;;;;5070115;28;20395;-81
2024/01/15 13:06:49;;;;;;;;;;;6.90;99.90;;;;;;5047048;28;19912;-80
2024/01/15 13:09:15;;;;;;;;;;;7.20;99.90;;;;;;5050982;28;19999;-83
2024/01/15 13:11:40;;;;;;;;;;;7.10;99.90;;;;;;5070838;28;20033;-81
2024/01/15 13:14:05;;;;;;;;;;;7.30;99.90;;;;;;5071364;28;19909;-79
2024/01/15 13:16:31;;;;;;;;;;;7.70;99.90;;;;;;5071233;28;19962;-81
2024/01/15 13:18:56;;;;;;;;;;;8.20;99.90;;;;;;5051024;28;19909;-81
2024/01/15 13:21:22;;;;;;;;;;;7.20;99.90;;;;;;5053305;28;19927;-81
2024/01/15 13:23:48;;;;;;;;;;;6.90;99.90;;;;;;5059086;28;19912;-79
2024/01/15 13:26:14;;;;;;;;;;;6.60;99.90;;;;;;5063283;28;19912;-79
2024/01/15 13:28:39;;;;;;;;;;;6.40;99.90;;;;;;5052819;28;20000;-78
2024/01/15 13:31:05;;;;;;;;;;;6.40;99.90;;;;;;5052977;28;20419;-82
2024/01/15 13:33:30;;;;;;;;;;;6.10;99.90;;;;;;5070275;28;19908;-83
2024/01/15 13:35:55;;;;;;;;;;;6.80;99.90;;;;;;5071935;28;19949;-84
2024/01/15 13:38:21;;;;;;;;;;;5.70;99.90;;;;;;5069923;28;20284;-83
2024/01/15 13:40:46;;;;;;;;;;;7.20;99.90;;;;;;5071547;28;19923;-81
2024/01/15 13:43:14;;;;;;;;;;;8.10;99.90;;;;;;5066490;28;19913;-84
2024/01/15 13:45:40;;;;;;;;;;;9.20;99.90;;;;;;5071234;28;19912;-83
2024/01/15 13:48:07;;;;;;;;;;;7.80;99.90;;;;;;5053508;28;19908;-83
2024/01/15 13:50:34;;;;;;;;;;;7.00;99.90;;;;;;5071616;28;19997;-82
2024/01/15 13:53:00;;;;;;;;;;;8.70;99.90;;;;;;5071800;28;20357;-82
2024/01/15 13:55:25;;;;;;;;;;;8.60;99.90;;;;;;5071819;28;19962;-82
2024/01/15 13:57:51;;;;;;;;;;;7.60;99.90;;;;;;5053041;28;20361;-83
2024/01/15 14:00:19;;;;;;;;;;;6.50;99.90;;;;;;5069679;28;20007;-81
2024/01/15 14:02:45;;;;;;;;;;;5.60;99.90;;;;;;5070548;28;19924;-81
2024/01/15 14:05:12;;;;;;;;;;;5.80;99.90;;;;;;5070666;28;19957;-81
2024/01/15 14:07:39;;;;;;;;;;;5.00;99.90;;;;;;5070875;28;19916;-81
2024/01/15 14:10:05;;;;;;;;;;;4.60;99.90;;;;;;5069902;28;19920;-81
2024/01/15 14:12:30;;;;;;;;;;;4.60;99.90;;;;;;5070043;28;20182;-83
2024/01/15 14:14:55;;;;;;;;;;;5.90;99.90;;;;;;5068730;28;20426;-83
2024/01/15 14:17:21;;;;;;;;;;;6.80;99.90;;;;;;5058287;28;19966;-81
2024/01/15 14:19:47;;;;;;;;;;;7.60;99.90;;;;;;5067323;28;19908;-83
2024/01/15 14:22:12;;;;;;;;;;;7.70;99.90;;;;;;5066167;28;19932;-84
2024/01/15 14:24:38;;;;;;;;;;;6.20;99.90;;;;;;5064445;28;19923;-84